Time;durP1;ratioP1;P1;durP2;ratioP2;P2;SDS_P1;SDS_P2;PMS_P1;PMS_P2;Temp;Humidity;BMP_temperature;BMP_pressure;BME280_temperature;BME280_humidity;BME280_pressure;Samples;Min_cycle;Max_cycle;Signal;HPM_P1;HPM_P2
2022/12/29 00:01:39;;;;;;;6.15;4.40;;;;;;;13.42;48.42;93277.19;4933894;28;20031;-86
2022/12/29 00:04:05;;;;;;;9.45;4.05;;;;;;;13.42;48.29;93286.06;4951193;28;20050;-85
2022/12/29 00:06:30;;;;;;;7.80;4.25;;;;;;;13.42;48.04;93269.78;4951112;28;20035;-86
2022/12/29 00:08:56;;;;;;;7.03;4.10;;;;;;;13.39;48.12;93273.47;4948679;28;20043;-86
2022/12/29 00:11:24;;;;;;;6.75;3.72;;;;;;;13.42;48.31;93277.19;4963981;28;20046;-86
2022/12/29 00:16:34;;;;;;;7.55;3.83;;;;;;;13.42;48.49;93272.50;4954050;28;20051;-90
2022/12/29 00:19:00;;;;;;;7.35;4.40;;;;;;;13.43;48.51;93265.06;4967258;28;20039;-86
2022/12/29 00:35:10;;;;;;;5.05;3.90;;;;;;;13.36;48.48;93245.28;4954015;28;20101;-87
2022/12/29 00:45:54;;;;;;;5.28;3.80;;;;;;;13.38;48.19;93245.56;4967841;28;20531;-86
2022/12/29 00:49:29;;;;;;;5.00;3.67;;;;;;;13.38;48.08;93250.25;4966145;28;20046;-86
2022/12/29 00:51:05;;;;;;;6.15;4.00;;;;;;;13.37;48.06;93252.22;4966793;28;20039;-86
2022/12/29 00:53:30;;;;;;;5.03;3.80;;;;;;;13.40;48.01;93247.78;4950711;28;20051;-87
2022/12/29 00:55:56;;;;;;;5.28;3.40;;;;;;;13.35;48.69;93249.25;4950761;28;20039;-86
2022/12/29 00:58:21;;;;;;;5.82;3.20;;;;;;;13.35;48.49;93256.63;4950428;28;20089;-86
2022/12/29 01:00:46;;;;;;;6.00;4.00;;;;;;;13.36;48.22;93252.69;4936057;28;20038;-85
2022/12/29 01:03:12;;;;;;;6.18;3.95;;;;;;;13.34;48.03;93253.19;4934863;28;20039;-86
2022/12/29 01:05:37;;;;;;;4.00;3.55;;;;;;;13.38;48.29;93252.97;4951881;28;20539;-88
2022/12/29 01:08:04;;;;;;;6.03;3.58;;;;;;;13.36;48.18;93258.88;4953819;28;20050;-86
2022/12/29 01:10:29;;;;;;;5.25;3.75;;;;;;;13.35;48.20;93251.94;4954894;28;20134;-85
2022/12/29 01:12:58;;;;;;;5.03;3.63;;;;;;;13.34;48.09;93249.72;4939531;28;20068;-87
2022/12/29 01:15:23;;;;;;;5.15;3.58;;;;;;;13.35;48.34;93251.94;4953993;28;20050;-86
2022/12/29 01:17:49;;;;;;;6.65;3.53;;;;;;;13.35;48.63;93251.94;4954527;28;20049;-86
2022/12/29 01:20:14;;;;;;;6.30;3.92;;;;;;;13.33;48.38;93248.97;4970188;28;20046;-86
2022/12/29 01:22:40;;;;;;;6.43;4.18;;;;;;;13.35;48.47;93243.81;4971190;28;20035;-86
2022/12/29 01:25:05;;;;;;;5.30;3.78;;;;;;;13.34;48.08;93250.47;4953996;28;20034;-87
2022/12/29 01:27:31;;;;;;;7.80;3.80;;;;;;;13.33;48.25;93253.66;4953725;28;20031;-87
2022/12/29 01:29:56;;;;;;;4.47;3.28;;;;;;;13.35;47.96;93251.22;4954596;28;20054;-86
2022/12/29 01:32:22;;;;;;;4.57;3.30;;;;;;;13.37;48.41;93251.47;4953353;28;20043;-86
2022/12/29 01:34:47;;;;;;;5.93;3.78;;;;;;;13.36;48.22;93244.56;4954811;28;20058;-86
2022/12/29 01:37:12;;;;;;;6.35;3.88;;;;;;;13.36;48.35;93244.56;4937328;28;20054;-85
2022/12/29 01:39:38;;;;;;;6.18;3.70;;;;;;;13.36;48.40;93250.72;4963363;28;20043;-85
2022/12/29 01:42:03;;;;;;;4.10;3.50;;;;;;;13.35;47.96;93249.25;4954067;28;20043;-85
2022/12/29 01:45:02;;;;;;;5.00;3.67;;;;;;;13.39;48.13;93246.31;4938241;28;20066;-87
2022/12/29 01:47:32;;;;;;;5.95;3.13;;;;;;;13.38;47.85;93245.56;4963761;28;20275;-87
2022/12/29 01:49:59;;;;;;;6.95;3.80;;;;;;;13.36;48.04;93241.84;4970497;28;20045;-86
2022/12/29 01:52:24;;;;;;;6.10;3.78;;;;;;;13.37;48.12;93232.47;4953645;28;20067;-89
2022/12/29 01:54:51;;;;;;;4.35;3.17;;;;;;;13.37;47.93;93230.50;4970657;28;20069;-86
2022/12/29 01:57:19;;;;;;;6.68;3.65;;;;;;;13.36;47.95;93230.97;4952818;28;20051;-87
2022/12/29 01:59:53;;;;;;;6.30;3.55;;;;;;;13.38;48.07;93231.25;4935019;28;20459;-86
2022/12/29 02:02:18;;;;;;;4.50;3.85;;;;;;;13.37;48.21;93225.06;4968880;28;20154;-85
2022/12/29 02:04:47;;;;;;;5.10;3.63;;;;;;;13.35;48.33;93226.78;4970015;28;20496;-86
2022/12/29 02:07:20;;;;;;;5.60;3.47;;;;;;;13.36;48.11;93223.56;4968820;28;20051;-85
2022/12/29 02:09:48;;;;;;;6.78;3.92;;;;;;;13.36;47.94;93218.16;4969806;28;20551;-87
2022/12/29 02:12:14;;;;;;;7.07;3.50;;;;;;;13.36;47.88;93214.69;4966269;28;20453;-87
2022/12/29 02:14:39;;;;;;;5.65;3.60;;;;;;;13.35;48.20;93216.66;4986146;28;20043;-86
2022/12/29 02:17:23;;;;;;;4.63;3.45;;;;;;;13.37;48.46;93210.75;4967898;28;20054;-90
2022/12/29 02:20:07;;;;;;;5.70;3.53;;;;;;;13.35;48.20;93199.63;4978553;28;20058;-86
2022/12/29 02:22:54;;;;;;;6.32;3.47;;;;;;;13.38;48.06;93212.97;4969146;28;20543;-86
2022/12/29 02:25:41;;;;;;;4.90;3.10;;;;;;;13.36;48.08;93207.28;4952340;28;20097;-88
2022/12/29 02:28:30;;;;;;;5.90;3.50;;;;;;;13.35;48.17;93194.94;4950972;28;20039;-86
2022/12/29 02:31:17;;;;;;;5.63;3.58;;;;;;;13.34;48.30;93188.03;4953352;28;20073;-86
2022/12/29 02:34:07;;;;;;;4.30;3.03;;;;;;;13.31;48.54;93196.38;4936405;28;20051;-85
2022/12/29 02:36:36;;;;;;;4.95;3.38;;;;;;;13.30;48.36;93187.50;4968982;28;20374;-89
2022/12/29 02:39:22;;;;;;;6.45;3.15;;;;;;;13.34;48.15;93193.44;4968550;28;20067;-87
2022/12/29 02:41:56;;;;;;;5.43;3.53;;;;;;;13.36;48.14;93199.16;4955157;28;20042;-85
2022/12/29 02:44:28;;;;;;;5.97;3.53;;;;;;;13.35;48.13;93189.50;4952121;28;20651;-86
2022/12/29 02:46:56;;;;;;;5.20;3.20;;;;;;;13.36;48.22;93179.41;4968712;28;20124;-85
2022/12/29 02:49:35;;;;;;;5.72;3.42;;;;;;;13.37;48.19;93186.31;4968221;28;20129;-87
2022/12/29 02:52:04;;;;;;;6.15;3.53;;;;;;;13.34;48.19;93193.44;4952923;28;20424;-86
2022/12/29 02:54:42;;;;;;;5.35;3.10;;;;;;;13.35;47.98;93184.09;4968537;28;20497;-86
2022/12/29 02:57:22;;;;;;;6.32;3.40;;;;;;;13.37;47.93;93184.34;4939405;28;20050;-86
2022/12/29 03:00:09;;;;;;;6.25;3.45;;;;;;;13.38;48.07;93185.09;4968546;28;20051;-86
2022/12/29 03:02:44;;;;;;;4.70;3.78;;;;;;;13.37;48.31;93181.63;4931159;28;20043;-88
2022/12/29 03:05:13;;;;;;;5.43;3.30;;;;;;;13.32;48.34;93179.63;4968273;28;20042;-86
2022/12/29 03:08:06;;;;;;;5.35;3.13;;;;;;;13.37;48.35;93168.06;4952442;28;20039;-87
2022/12/29 03:10:58;;;;;;;4.55;3.22;;;;;;;13.37;47.97;93180.88;4968070;28;20058;-85
2022/12/29 03:16:27;;;;;;;6.00;3.63;;;;;;;13.37;48.19;93164.59;4955587;28;20129;-86
2022/12/29 03:19:00;;;;;;;6.00;3.90;;;;;;;13.36;48.14;93176.69;4952759;28;20039;-86
2022/12/29 03:24:25;;;;;;;6.13;3.22;;;;;;;13.35;48.14;93175.19;4967913;28;20069;-86
2022/12/29 03:26:51;;;;;;;4.97;3.10;;;;;;;13.33;47.95;93177.66;4952460;28;20042;-86
2022/12/29 03:29:16;;;;;;;7.10;3.60;;;;;;;13.34;48.16;93184.56;4967227;28;20045;-86
2022/12/29 03:31:41;;;;;;;7.40;3.42;;;;;;;13.35;48.12;93180.63;4949583;28;20094;-88
2022/12/29 03:34:07;;;;;;;4.80;3.60;;;;;;;13.33;47.89;93174.94;4968213;28;20074;-87
2022/12/29 03:36:39;;;;;;;5.15;3.60;;;;;;;13.33;48.28;93175.66;4933233;29;20040;-88
2022/12/29 03:39:11;;;;;;;4.10;2.95;;;;;;;13.33;48.23;93172.97;4966280;28;20047;-87
2022/12/29 03:41:37;;;;;;;5.20;3.15;;;;;;;13.32;48.21;93181.59;4968572;28;20035;-86
2022/12/29 03:44:02;;;;;;;3.45;2.85;;;;;;;13.31;48.31;93180.84;4952016;28;20432;-87
2022/12/29 03:46:28;;;;;;;5.28;3.30;;;;;;;13.31;48.46;93169.97;4952151;28;20512;-86
2022/12/29 03:48:53;;;;;;;6.78;3.67;;;;;;;13.33;48.53;93180.34;4952010;28;20039;-87
2022/12/29 03:51:18;;;;;;;4.95;3.53;;;;;;;13.34;47.88;93177.16;4943098;28;20031;-87
2022/12/29 03:53:44;;;;;;;4.55;3.15;;;;;;;13.33;47.81;93169.50;4951608;28;20042;-89
2022/12/29 03:56:09;;;;;;;3.25;2.75;;;;;;;13.32;47.94;93176.16;4935126;28;20054;-86
2022/12/29 03:58:35;;;;;;;7.10;3.50;;;;;;;13.33;47.99;93177.66;4968158;28;20038;-86
2022/12/29 04:01:00;;;;;;;4.22;3.17;;;;;;;13.30;48.45;93176.63;4967307;28;20508;-87
2022/12/29 04:03:25;;;;;;;4.93;3.65;;;;;;;13.30;48.10;93173.19;4967479;28;20121;-87
2022/12/29 04:05:51;;;;;;;6.10;3.15;;;;;;;13.31;48.04;93169.97;4968333;28;20125;-86
2022/12/29 04:08:16;;;;;;;5.30;3.25;;;;;;;13.30;48.10;93176.63;4966990;28;20572;-85
2022/12/29 04:10:42;;;;;;;5.18;3.20;;;;;;;13.28;48.30;93179.09;4967599;28;20070;-86
2022/12/29 04:13:07;;;;;;;4.35;3.13;;;;;;;13.31;48.23;93177.38;4935523;28;20043;-89
2022/12/29 04:15:32;;;;;;;5.20;3.78;;;;;;;13.33;48.31;93178.38;4951709;28;20038;-86
2022/12/29 04:17:58;;;;;;;7.28;3.30;;;;;;;13.29;48.42;93174.41;4936403;28;20412;-86
2022/12/29 04:23:08;;;;;;;3.30;2.83;;;;;;;13.30;47.81;93182.06;4932630;29;20069;-86
2022/12/29 04:25:33;;;;;;;4.93;3.28;;;;;;;13.33;47.81;93183.81;4931847;29;20047;-86
2022/12/29 04:27:59;;;;;;;4.82;3.20;;;;;;;13.33;48.37;93188.50;4915696;28;20039;-87
2022/12/29 04:30:24;;;;;;;5.07;3.13;;;;;;;13.34;48.28;93190.00;4946395;28;20517;-87
2022/12/29 04:32:49;;;;;;;4.38;3.15;;;;;;;13.35;48.27;93186.78;4937558;28;20047;-87
2022/12/29 04:35:15;;;;;;;5.15;3.70;;;;;;;13.29;48.34;93186.00;4941765;28;20524;-87
2022/12/29 04:37:40;;;;;;;5.40;3.08;;;;;;;13.33;47.61;93191.22;4931216;29;20457;-86
2022/12/29 04:40:06;;;;;;;6.65;2.95;;;;;;;13.32;48.21;93192.44;4930623;28;20039;-87
2022/12/29 04:42:32;;;;;;;4.00;2.92;;;;;;;13.31;48.16;93191.69;4918127;29;20043;-88
2022/12/29 04:44:57;;;;;;;4.75;3.30;;;;;;;13.31;48.00;93197.13;4934574;29;20043;-89
2022/12/29 04:47:23;;;;;;;5.70;2.83;;;;;;;13.34;47.87;93192.72;4934424;29;20146;-87
2022/12/29 04:49:48;;;;;;;5.35;2.92;;;;;;;13.32;47.96;93195.16;4935194;29;20059;-87
2022/12/29 04:52:13;;;;;;;5.05;3.22;;;;;;;13.29;48.55;93202.28;4914762;29;20763;-89
2022/12/29 04:54:46;;;;;;;4.68;3.15;;;;;;;13.30;48.13;93192.94;4961267;28;20413;-88
2022/12/29 04:57:12;;;;;;;4.03;3.10;;;;;;;13.30;48.03;93200.31;4954619;28;20050;-88
2022/12/29 04:59:37;;;;;;;3.85;3.15;;;;;;;13.29;48.06;93194.16;4955323;28;20046;-86
2022/12/29 05:02:03;;;;;;;3.78;2.92;;;;;;;13.27;48.25;93196.59;4970580;28;20059;-87
2022/12/29 05:04:28;;;;;;;6.22;2.85;;;;;;;13.30;48.16;93194.91;4955313;28;20423;-87
2022/12/29 05:06:53;;;;;;;5.25;3.35;;;;;;;13.28;48.52;93197.34;4955538;28;20050;-86
2022/12/29 05:09:19;;;;;;;60.58;41.65;;;;;;;13.36;48.15;93190.25;4938911;28;20035;-89
2022/12/29 05:11:44;;;;;;;205.82;137.95;;;;;;;13.47;48.08;93187.59;4954976;28;20038;-86
2022/12/29 05:14:10;;;;;;;29.20;18.52;;;;;;;13.54;48.35;93189.88;4954051;28;20039;-88
2022/12/29 05:16:35;;;;;;;8.43;6.88;;;;;;;13.57;48.01;93196.31;4935005;29;20039;-89
2022/12/29 05:19:00;;;;;;;4.35;3.30;;;;;;;13.58;47.59;93195.09;4935301;29;20063;-88
2022/12/29 05:21:26;;;;;;;4.85;3.33;;;;;;;13.58;47.43;93195.09;4937401;28;20047;-92
2022/12/29 05:23:51;;;;;;;201.50;167.88;;;;;;;13.56;47.75;93202.97;4935132;29;20527;-85
2022/12/29 05:26:16;;;;;;;14.75;8.32;;;;;;;13.56;48.22;93205.69;4919217;29;20055;-85
2022/12/29 05:28:42;;;;;;;20.63;11.85;;;;;;;13.60;47.48;93190.66;4935031;29;20046;-85
2022/12/29 05:31:07;;;;;;;21.50;12.82;;;;;;;13.54;47.73;93189.13;4899491;29;20040;-86
2022/12/29 05:33:33;;;;;;;8.02;4.25;;;;;;;13.52;47.76;93189.63;4927408;28;20050;-85
2022/12/29 05:36:04;;;;;;;8.00;4.10;;;;;;;13.50;47.68;93185.91;4926876;29;20048;-87
2022/12/29 05:38:29;;;;;;;6.47;4.75;;;;;;;13.48;47.50;93182.91;4933981;29;20225;-86
2022/12/29 05:40:55;;;;;;;7.65;5.47;;;;;;;13.49;47.56;93182.44;4934475;29;20042;-88
2022/12/29 05:43:20;;;;;;;8.23;4.40;;;;;;;13.45;47.79;93171.06;4933399;28;20074;-86
2022/12/29 05:45:48;;;;;;;7.15;4.75;;;;;;;13.43;48.03;93176.22;4951885;28;20051;-89
2022/12/29 05:48:13;;;;;;;6.97;4.55;;;;;;;13.41;47.96;93180.66;4949618;28;20047;-85
2022/12/29 05:50:39;;;;;;;5.60;4.10;;;;;;;13.41;47.78;93186.09;4970906;28;20550;-90
2022/12/29 05:53:04;;;;;;;8.65;5.22;;;;;;;13.37;48.22;93187.06;4933697;28;20047;-88
2022/12/29 05:55:30;;;;;;;7.30;4.72;;;;;;;13.41;47.87;93186.09;4942911;28;20046;-86
2022/12/29 05:57:55;;;;;;;5.82;4.32;;;;;;;13.39;47.83;93186.56;4971084;28;20038;-86
2022/12/29 06:00:21;;;;;;;7.05;4.78;;;;;;;13.37;47.90;93181.63;4954231;28;20634;-86
2022/12/29 06:02:46;;;;;;;7.90;4.88;;;;;;;13.34;48.41;93179.88;4953844;28;20043;-87
2022/12/29 06:05:12;;;;;;;11.93;4.75;;;;;;;13.31;47.94;93169.97;4969499;28;20089;-91
2022/12/29 06:07:37;;;;;;;10.05;4.85;;;;;;;13.35;47.73;93175.19;4954547;28;20423;-88
2022/12/29 06:10:04;;;;;;;98.35;78.85;;;;;;;13.38;47.77;93176.94;4952380;28;20043;-87
2022/12/29 06:12:30;;;;;;;8.55;5.07;;;;;;;13.34;47.97;93181.84;4937664;28;20049;-88
2022/12/29 06:14:55;;;;;;;6.95;4.70;;;;;;;13.32;47.76;93185.03;4954358;28;20039;-88
2022/12/29 06:17:20;;;;;;;7.70;5.22;;;;;;;13.31;47.73;93183.56;4953619;28;20535;-86
2022/12/29 06:19:46;;;;;;;8.38;5.32;;;;;;;13.29;47.97;93172.44;4953790;28;20050;-86
2022/12/29 06:22:12;;;;;;;9.18;5.63;;;;;;;13.27;48.45;93176.84;4952148;28;20062;-88
2022/12/29 06:24:38;;;;;;;7.07;5.53;;;;;;;13.28;48.38;93178.34;4954293;28;20035;-91
2022/12/29 06:27:03;;;;;;;8.07;5.57;;;;;;;13.27;47.99;93172.16;4952005;28;20417;-89
2022/12/29 06:29:28;;;;;;;8.43;5.45;;;;;;;13.29;47.89;93177.88;4954065;28;20038;-90
2022/12/29 06:31:57;;;;;;;9.40;6.20;;;;;;;13.26;48.30;93178.06;4938026;28;20507;-85
2022/12/29 06:34:23;;;;;;;8.35;5.57;;;;;;;13.27;47.86;93172.16;4968626;28;20046;-85
2022/12/29 06:36:48;;;;;;;10.50;6.30;;;;;;;13.29;48.00;93177.13;4968962;28;20397;-86
2022/12/29 06:39:14;;;;;;;9.50;6.30;;;;;;;13.30;48.08;93167.75;4937338;28;20035;-89
2022/12/29 06:41:39;;;;;;;9.60;5.70;;;;;;;13.28;48.05;93165.50;4953421;28;20432;-91
2022/12/29 06:44:05;;;;;;;9.38;6.50;;;;;;;13.27;48.26;93166.75;4936816;28;20116;-86
2022/12/29 06:46:30;;;;;;;8.02;5.82;;;;;;;13.26;48.22;93170.69;4969079;28;20504;-87
2022/12/29 06:48:56;;;;;;;9.38;6.13;;;;;;;13.27;47.91;93179.56;4953510;28;20489;-86
2022/12/29 06:51:21;;;;;;;9.30;5.90;;;;;;;13.24;48.26;93175.09;4951970;28;20042;-88
2022/12/29 06:53:46;;;;;;;9.02;5.80;;;;;;;13.24;48.47;93169.66;4933858;29;20122;-87
2022/12/29 06:56:12;;;;;;;7.72;5.78;;;;;;;13.24;48.08;93173.13;4958245;28;20043;-89
2022/12/29 06:58:37;;;;;;;8.63;6.07;;;;;;;13.26;48.26;93180.78;4944827;28;20043;-88
2022/12/29 07:01:03;;;;;;;10.63;6.00;;;;;;;13.24;48.34;93178.56;4968684;28;20042;-89
2022/12/29 07:03:28;;;;;;;8.63;6.53;;;;;;;13.26;48.10;93178.81;4983648;28;20039;-88
2022/12/29 07:05:54;;;;;;;8.80;6.32;;;;;;;13.23;48.06;93182.50;4937046;28;20504;-87
2022/12/29 07:08:19;;;;;;;7.60;5.90;;;;;;;13.25;48.15;93179.31;4952878;28;20059;-86
2022/12/29 07:10:45;;;;;;;8.15;6.13;;;;;;;13.21;48.44;93184.94;4950278;28;20441;-86
2022/12/29 07:13:11;;;;;;;7.72;5.28;;;;;;;13.26;48.11;93178.81;4976032;28;20047;-86
2022/12/29 07:15:37;;;;;;;9.40;6.03;;;;;;;13.29;48.32;93185.25;4968934;28;20047;-86
2022/12/29 07:18:03;;;;;;;7.93;5.60;;;;;;;13.28;48.26;93184.50;4952761;28;20043;-88
2022/12/29 07:20:29;;;;;;;8.20;6.53;;;;;;;13.25;48.19;93190.91;4952548;28;20038;-89
2022/12/29 07:22:54;;;;;;;10.15;6.30;;;;;;;13.28;47.97;93191.91;4952758;28;20043;-87
2022/12/29 07:25:20;;;;;;;9.25;6.60;;;;;;;13.27;48.24;93187.72;4935893;28;20061;-85
2022/12/29 07:27:45;;;;;;;6.97;5.70;;;;;;;13.26;48.35;93199.78;4968203;28;20432;-87
2022/12/29 07:30:11;;;;;;;8.80;6.65;;;;;;;13.26;48.17;93192.41;4936324;28;20066;-86
2022/12/29 07:32:36;;;;;;;13.30;6.45;;;;;;;13.22;48.57;93191.88;4968054;28;20074;-88
2022/12/29 07:35:02;;;;;;;11.45;6.25;;;;;;;13.26;48.14;93191.66;4951703;28;20042;-86
2022/12/29 07:37:27;;;;;;;9.05;6.97;;;;;;;13.26;48.22;93178.81;4952287;28;20113;-88
2022/12/29 07:39:53;;;;;;;10.82;7.72;;;;;;;13.28;47.92;93175.63;4952792;28;20485;-86
2022/12/29 07:42:18;;;;;;;11.65;6.70;;;;;;;13.26;48.27;93176.09;4934157;28;20049;-87
2022/12/29 07:44:44;;;;;;;14.50;7.00;;;;;;;13.26;48.12;93172.66;4935701;28;20070;-89
2022/12/29 07:47:09;;;;;;;13.68;7.78;;;;;;;13.27;47.84;93166.75;4951399;28;20094;-90
2022/12/29 07:49:34;;;;;;;13.70;7.05;;;;;;;13.25;48.29;93180.03;4948654;28;20122;-86
2022/12/29 07:52:00;;;;;;;9.45;6.68;;;;;;;13.27;47.73;93185.00;4968363;28;20105;-86
2022/12/29 07:54:25;;;;;;;12.77;7.10;;;;;;;13.25;48.37;93174.63;4929805;28;20456;-87
2022/12/29 07:56:51;;;;;;;18.45;7.78;;;;;;;13.25;48.22;93179.31;4967977;28;20113;-86
2022/12/29 07:59:16;;;;;;;12.23;7.10;;;;;;;13.28;48.12;93181.06;4966417;28;20047;-88
2022/12/29 08:01:42;;;;;;;14.50;7.13;;;;;;;13.33;47.83;93189.25;4960844;28;20128;-90
2022/12/29 08:04:07;;;;;;;10.25;7.45;;;;;;;13.32;48.01;93187.00;4947173;28;20448;-89
2022/12/29 08:06:33;;;;;;;11.90;7.05;;;;;;;13.26;47.97;93195.09;4950699;28;20085;-88
2022/12/29 08:09:00;;;;;;;12.23;7.20;;;;;;;13.30;47.83;93194.91;4953243;28;20070;-88
2022/12/29 08:11:26;;;;;;;11.10;6.68;;;;;;;13.31;47.80;93196.38;4966319;28;20049;-88
2022/12/29 08:13:51;;;;;;;11.50;7.25;;;;;;;13.27;48.05;93195.84;4951973;28;20042;-89
2022/12/29 08:16:17;;;;;;;13.18;6.78;;;;;;;13.27;47.61;93204.00;4931492;28;20098;-86
2022/12/29 08:18:42;;;;;;;11.50;7.30;;;;;;;13.24;47.54;93196.81;4988352;28;20046;-85
2022/12/29 08:21:09;;;;;;;17.10;7.35;;;;;;;13.24;47.50;93208.41;4955261;28;20054;-89
2022/12/29 08:23:34;;;;;;;11.77;7.13;;;;;;;13.23;47.81;93206.19;4984293;28;20039;-88
2022/12/29 08:26:01;;;;;;;10.52;7.18;;;;;;;13.30;47.69;93217.34;4971942;28;20843;-86
2022/12/29 08:28:26;;;;;;;11.18;6.95;;;;;;;13.29;47.77;93217.84;4959093;28;20051;-87
2022/12/29 08:30:52;;;;;;;13.02;7.65;;;;;;;13.27;47.85;93221.03;4972474;28;20098;-91
2022/12/29 08:33:18;;;;;;;14.00;7.10;;;;;;;13.34;48.21;93214.44;4956067;28;20138;-89
2022/12/29 08:35:43;;;;;;;12.23;7.43;;;;;;;13.27;48.12;93209.44;4954403;28;20069;-87
2022/12/29 08:38:11;;;;;;;10.90;7.25;;;;;;;13.25;48.21;93204.47;4954075;28;20051;-86
2022/12/29 08:40:36;;;;;;;9.57;6.75;;;;;;;13.26;48.02;93194.38;4937294;28;20066;-86
2022/12/29 08:43:02;;;;;;;10.73;7.22;;;;;;;13.25;47.95;93190.16;4951322;28;20126;-86
2022/12/29 08:45:27;;;;;;;9.50;6.82;;;;;;;13.24;48.10;93184.00;4965792;28;20050;-89
2022/12/29 08:47:53;;;;;;;14.85;7.03;;;;;;;13.25;48.15;93179.31;4955416;28;20045;-87
2022/12/29 08:50:18;;;;;;;15.50;6.95;;;;;;;13.29;47.54;93191.44;4970031;28;20112;-88
2022/12/29 08:52:44;;;;;;;11.70;6.97;;;;;;;13.27;48.19;93193.88;4964800;28;20461;-88
2022/12/29 08:55:09;;;;;;;11.38;6.85;;;;;;;13.30;47.62;93197.59;4971046;28;20129;-86
2022/12/29 08:57:34;;;;;;;14.63;7.43;;;;;;;13.29;48.15;93196.88;4956058;28;20389;-87
2022/12/29 09:00:00;;;;;;;11.68;6.63;;;;;;;13.33;47.79;93197.41;4967090;28;20085;-88
2022/12/29 09:02:25;;;;;;;11.70;7.18;;;;;;;13.31;47.67;93199.09;4938976;28;20070;-94
2022/12/29 09:04:51;;;;;;;10.55;6.43;;;;;;;13.35;47.66;93211.22;4953304;28;20043;-92
2022/12/29 09:07:16;;;;;;;8.93;6.85;;;;;;;13.36;47.91;93210.00;4971758;28;20043;-89
2022/12/29 09:09:42;;;;;;;13.02;7.13;;;;;;;13.40;47.91;93209.03;4955164;28;20097;-89
2022/12/29 09:12:07;;;;;;;11.95;6.95;;;;;;;13.37;47.65;93214.22;4973158;28;20043;-87
2022/12/29 09:14:33;;;;;;;12.38;7.35;;;;;;;13.36;48.05;93210.00;4967939;28;20043;-90
2022/12/29 09:19:42;;;;;;;9.35;6.60;;;;;;;13.34;47.63;93201.59;4957313;28;20049;-86
2022/12/29 09:22:08;;;;;;;10.55;6.13;;;;;;;13.36;47.72;93207.28;4957047;28;20038;-87
2022/12/29 09:24:33;;;;;;;13.32;7.10;;;;;;;13.36;47.54;93210.00;4972960;28;20051;-89
2022/12/29 09:26:59;;;;;;;8.90;6.30;;;;;;;13.38;48.06;93221.13;4970491;28;20049;-89
2022/12/29 09:29:24;;;;;;;9.93;6.60;;;;;;;13.36;47.66;93220.88;4954539;28;20098;-88
2022/12/29 09:31:49;;;;;;;12.48;7.10;;;;;;;13.39;48.02;93211.00;4938119;28;20133;-89
2022/12/29 09:34:15;;;;;;;13.13;6.63;;;;;;;13.35;47.52;93213.94;4988070;28;20039;-92
2022/12/29 09:36:40;;;;;;;14.40;6.45;;;;;;;13.38;47.55;93217.66;4956225;28;20042;-88
2022/12/29 09:39:06;;;;;;;13.20;6.32;;;;;;;13.41;47.68;93210.53;4956330;28;20038;-87
2022/12/29 09:41:38;;;;;;;14.40;6.93;;;;;;;13.39;47.71;93211.00;4939497;28;20035;-89
2022/12/29 09:44:16;;;;;;;10.50;6.40;;;;;;;13.37;47.62;93208.78;4954552;28;20042;-87
2022/12/29 09:46:43;;;;;;;12.77;6.50;;;;;;;13.38;47.79;93207.56;4971460;28;20035;-91
2022/12/29 09:49:21;;;;;;;11.85;6.68;;;;;;;13.35;48.05;93200.38;4986913;28;20050;-86
2022/12/29 09:51:50;;;;;;;10.25;6.47;;;;;;;13.40;47.52;93195.47;4978357;28;20527;-89
2022/12/29 09:54:15;;;;;;;9.98;6.07;;;;;;;13.38;47.62;93185.84;4946314;28;20117;-88
2022/12/29 09:56:40;;;;;;;10.82;6.32;;;;;;;13.46;47.79;93188.09;4970567;28;20121;-86
2022/12/29 09:59:13;;;;;;;12.70;6.70;;;;;;;13.43;47.66;93173.50;4964180;28;20093;-86
2022/12/29 10:01:42;;;;;;;9.57;6.60;;;;;;;13.44;47.74;93176.97;4971070;28;20054;-88
2022/12/29 10:04:08;;;;;;;13.52;6.90;;;;;;;13.42;47.83;93179.44;4953790;28;20047;-87
2022/12/29 10:06:40;;;;;;;12.00;7.07;;;;;;;13.42;47.70;93174.00;4951432;29;20115;-89
2022/12/29 10:09:11;;;;;;;12.27;6.47;;;;;;;13.44;47.49;93175.00;4961954;28;20093;-89
2022/12/29 10:11:59;;;;;;;14.57;7.78;;;;;;;13.46;47.87;93169.06;4970156;28;20034;-87
2022/12/29 10:14:42;;;;;;;12.70;6.75;;;;;;;13.45;47.65;93168.34;4969063;28;20575;-89
2022/12/29 10:17:27;;;;;;;9.77;5.93;;;;;;;13.46;47.73;93171.78;4966272;28;20046;-93
2022/12/29 10:20:18;;;;;;;11.98;7.40;;;;;;;13.43;47.68;93172.75;4936091;28;20490;-91
2022/12/29 10:23:05;;;;;;;16.13;7.20;;;;;;;13.48;47.36;93158.47;4969604;28;20038;-89
2022/12/29 10:25:32;;;;;;;10.25;6.45;;;;;;;13.44;47.45;93166.84;4940575;28;20038;-85
2022/12/29 10:27:59;;;;;;;40.08;9.65;;;;;;;13.48;46.91;93161.94;4942087;28;20519;-86
2022/12/29 10:30:25;;;;;;;28.95;7.88;;;;;;;13.50;46.43;93169.59;4951587;28;20456;-86
2022/12/29 10:32:57;;;;;;;14.60;8.23;;;;;;;13.48;46.07;93166.63;4966335;28;20038;-88
2022/12/29 10:35:23;;;;;;;25.67;9.13;;;;;;;13.49;46.78;93163.44;4997037;28;20564;-85
2022/12/29 10:38:01;;;;;;;28.63;10.07;;;;;;;13.52;46.91;93172.59;4969265;28;20039;-85
2022/12/29 10:40:37;;;;;;;17.10;7.75;;;;;;;13.51;46.85;93179.25;4954409;28;20035;-85
2022/12/29 10:43:07;;;;;;;14.45;7.68;;;;;;;13.45;47.32;93171.06;4970068;28;20353;-87
2022/12/29 10:45:35;;;;;;;17.83;8.10;;;;;;;13.46;47.54;93161.69;4954103;28;20050;-87
2022/12/29 10:48:08;;;;;;;16.65;8.10;;;;;;;13.49;47.37;93160.72;4975187;28;20047;-85
2022/12/29 10:50:33;;;;;;;14.98;7.50;;;;;;;13.52;47.46;93169.88;4985292;28;20436;-89
2022/12/29 10:53:01;;;;;;;16.85;6.15;;;;;;;13.45;45.34;93176.47;4969739;28;20046;-89
2022/12/29 10:55:30;;;;;;;16.33;4.88;;;;;;;13.41;44.55;93164.38;4961383;28;20074;-87
2022/12/29 10:57:55;;;;;;;11.52;4.40;;;;;;;13.40;43.40;93160.91;4936034;28;20508;-90
2022/12/29 11:00:21;;;;;;;14.00;5.78;;;;;;;13.39;42.37;93162.16;4935886;28;20051;-92
2022/12/29 11:03:04;;;;;;;10.45;4.25;;;;;;;13.41;42.43;93154.25;4952189;28;20053;-87
2022/12/29 11:05:54;;;;;;;33.40;6.28;;;;;;;13.41;42.55;93165.13;4967455;28;20050;-87
2022/12/29 11:08:21;;;;;;;19.80;5.65;;;;;;;13.42;41.91;93163.16;4968972;28;20043;-92
2022/12/29 11:11:00;;;;;;;40.95;6.15;;;;;;;13.33;42.25;93177.66;4984277;28;20139;-89
2022/12/29 11:13:27;;;;;;;21.63;5.50;;;;;;;13.33;42.21;93161.34;4950169;28;20041;-86
2022/12/29 11:15:52;;;;;;;13.88;3.90;;;;;;;13.34;42.47;93154.69;4949952;28;20077;-84
2022/12/29 11:18:25;;;;;;;30.20;4.40;;;;;;;13.30;42.35;93156.88;4951376;28;20042;-87
2022/12/29 11:20:55;;;;;;;11.05;3.60;;;;;;;13.29;41.52;93160.81;4939541;29;20142;-85
2022/12/29 11:23:29;;;;;;;10.68;3.53;;;;;;;13.36;41.21;93147.56;4967205;28;20027;-85
2022/12/29 11:26:10;;;;;;;8.60;3.15;;;;;;;13.25;40.96;93150.19;4967947;28;20045;-87
2022/12/29 11:28:37;;;;;;;10.15;3.30;;;;;;;13.25;41.03;93131.19;4959854;28;20571;-84
2022/12/29 11:31:04;;;;;;;13.00;3.88;;;;;;;13.30;42.02;93140.59;4936415;28;20053;-87
2022/12/29 11:33:37;;;;;;;19.17;4.40;;;;;;;13.29;41.07;93130.97;4968607;28;20038;-87
2022/12/29 11:36:08;;;;;;;17.08;4.40;;;;;;;13.25;41.18;93133.91;4952428;28;20074;-85
2022/12/29 11:38:36;;;;;;;12.00;3.00;;;;;;;13.27;41.10;93128.00;4935161;28;20062;-86
2022/12/29 11:41:02;;;;;;;7.88;3.70;;;;;;;13.24;40.67;93129.69;4975077;28;20155;-87
2022/12/29 11:43:35;;;;;;;9.82;3.80;;;;;;;13.27;40.66;93126.03;4936486;28;20058;-87
2022/12/29 11:46:03;;;;;;;9.63;4.20;;;;;;;13.26;40.61;93123.78;4968320;28;20844;-86
2022/12/29 11:48:31;;;;;;;10.15;4.70;;;;;;;13.27;40.55;93131.44;4948687;28;20777;-88
2022/12/29 11:51:00;;;;;;;8.48;5.15;;;;;;;13.27;40.52;93128.00;4954072;28;20050;-89
2022/12/29 11:53:36;;;;;;;10.18;6.40;;;;;;;13.22;40.15;93123.25;4983287;28;20046;-86
2022/12/29 11:56:05;;;;;;;16.30;6.25;;;;;;;13.30;39.79;93124.31;4983690;28;20558;-86
2022/12/29 11:58:32;;;;;;;10.18;5.53;;;;;;;13.25;39.74;93125.75;4952583;28;20065;-87
2022/12/29 12:01:03;;;;;;;11.85;6.30;;;;;;;13.22;40.00;93121.28;4932255;29;20102;-89
2022/12/29 12:03:29;;;;;;;11.07;7.18;;;;;;;13.21;40.70;93114.38;4948360;28;20524;-89
2022/12/29 12:06:00;;;;;;;12.15;6.32;;;;;;;13.19;40.92;93119.56;4952251;28;20055;-86
2022/12/29 12:08:46;;;;;;;11.88;5.95;;;;;;;13.23;41.10;93120.06;4951706;28;20404;-86
2022/12/29 12:11:15;;;;;;;17.83;8.18;;;;;;;13.27;40.48;93112.44;4967127;28;20098;-87